createdAt,value
2023-02-04T00:00:18.837Z,1.81
2023-02-04T00:02:46.929Z,1.78
2023-02-04T00:05:15.870Z,1.72
2023-02-04T00:07:43.104Z,1.68
2023-02-04T00:10:10.257Z,1.65
2023-02-04T00:12:38.863Z,1.66
2023-02-04T00:15:06.380Z,1.68
2023-02-04T00:17:35.025Z,1.70
2023-02-04T00:20:02.013Z,1.72
2023-02-04T00:22:29.756Z,1.74
2023-02-04T00:24:56.872Z,1.77
2023-02-04T00:27:23.850Z,1.79
2023-02-04T00:29:50.997Z,1.83
2023-02-04T00:32:19.047Z,1.87
2023-02-04T00:34:47.318Z,1.93
2023-02-04T00:37:15.620Z,1.92
2023-02-04T00:39:42.625Z,1.89
2023-02-04T00:42:09.942Z,1.85
2023-02-04T00:44:37.095Z,1.79
2023-02-04T00:47:04.617Z,1.78
2023-02-04T00:49:33.338Z,1.78
2023-02-04T00:52:00.709Z,1.78
2023-02-04T00:54:28.286Z,1.78
2023-02-04T00:56:55.217Z,1.79
2023-02-04T00:59:22.834Z,1.80
2023-02-04T01:01:53.841Z,1.83
2023-02-04T01:04:21.114Z,1.88
2023-02-04T01:06:48.345Z,1.93
2023-02-04T01:09:15.450Z,1.96
2023-02-04T01:11:45.106Z,1.98
2023-02-04T01:14:12.524Z,2.00
2023-02-04T01:16:39.887Z,2.04
2023-02-04T01:19:06.773Z,2.08
2023-02-04T01:21:33.929Z,2.10
2023-02-04T01:24:01.870Z,2.08
2023-02-04T01:26:29.172Z,2.06
2023-02-04T01:28:57.401Z,2.02
2023-02-04T01:31:25.307Z,1.97
2023-02-04T01:33:52.641Z,1.93
2023-02-04T01:36:21.335Z,1.90
2023-02-04T01:38:49.398Z,1.88
2023-02-04T01:41:17.158Z,1.87
2023-02-04T01:43:45.838Z,1.86
2023-02-04T01:46:12.811Z,1.83
2023-02-04T01:48:40.111Z,1.83
2023-02-04T01:51:09.136Z,1.81
2023-02-04T01:53:37.220Z,1.80
2023-02-04T01:56:30.492Z,1.82
2023-02-04T01:58:58.538Z,1.84
2023-02-04T02:01:35.549Z,1.87
2023-02-04T02:04:02.767Z,1.91
2023-02-04T02:06:30.838Z,1.91
2023-02-04T02:08:58.819Z,1.92
2023-02-04T02:11:26.083Z,1.91
2023-02-04T02:13:55.212Z,1.92
2023-02-04T02:16:23.147Z,1.91
2023-02-04T02:18:53.506Z,1.91
2023-02-04T02:21:31.797Z,1.89
2023-02-04T02:24:00.791Z,1.87
2023-02-04T02:26:27.720Z,1.88
2023-02-04T02:28:54.758Z,1.87
2023-02-04T02:31:21.930Z,1.85
2023-02-04T02:33:48.980Z,1.85
2023-02-04T02:36:16.395Z,1.85
2023-02-04T02:38:44.073Z,1.86
2023-02-04T02:41:11.155Z,1.85
2023-02-04T02:43:38.155Z,1.89
2023-02-04T02:46:05.429Z,1.92
2023-02-04T02:48:33.301Z,1.98
2023-02-04T02:51:01.592Z,2.06
2023-02-04T02:53:29.369Z,2.11
2023-02-04T02:55:57.259Z,2.07
2023-02-04T02:58:36.114Z,2.02
2023-02-04T03:01:05.456Z,1.96
2023-02-04T03:03:36.180Z,1.87
2023-02-04T03:06:15.384Z,1.81
2023-02-04T03:08:43.376Z,1.77
2023-02-04T03:11:10.508Z,1.76
2023-02-04T03:13:38.702Z,1.74
2023-02-04T03:16:06.038Z,1.71
2023-02-04T03:18:33.343Z,1.69
2023-02-04T03:21:05.127Z,1.69
2023-02-04T03:23:33.970Z,1.64
2023-02-04T03:26:03.776Z,1.56
2023-02-04T03:28:31.896Z,1.46
2023-02-04T03:30:59.988Z,1.39
2023-02-04T03:33:30.890Z,1.37
2023-02-04T03:35:58.481Z,1.36
2023-02-04T03:38:25.736Z,1.34
2023-02-04T03:40:53.036Z,1.31
2023-02-04T03:43:19.909Z,1.28
2023-02-04T03:45:46.952Z,1.26
2023-02-04T03:48:14.673Z,1.26
2023-02-04T03:50:41.623Z,1.27
2023-02-04T03:53:08.670Z,1.22
2023-02-04T03:55:35.601Z,1.19
2023-02-04T03:58:03.921Z,1.22
2023-02-04T04:00:31.972Z,1.25
2023-02-04T04:02:59.662Z,1.26
2023-02-04T04:05:28.004Z,1.25
2023-02-04T04:07:54.991Z,1.22
2023-02-04T04:10:22.082Z,1.15
2023-02-04T04:12:49.060Z,1.09
2023-02-04T04:15:16.853Z,1.02
2023-02-04T04:17:43.652Z,0.96
2023-02-04T04:20:11.540Z,0.92
2023-02-04T04:22:38.918Z,0.89
2023-02-04T04:25:06.247Z,0.87
2023-02-04T04:27:33.539Z,0.81
2023-02-04T04:30:04.127Z,0.78
2023-02-04T04:32:31.559Z,0.75
2023-02-04T04:34:58.692Z,0.74
2023-02-04T04:37:25.841Z,0.72
2023-02-04T04:39:52.760Z,0.73
2023-02-04T04:42:19.985Z,0.76
2023-02-04T04:44:46.799Z,0.77
2023-02-04T04:47:14.380Z,0.78
2023-02-04T04:49:44.260Z,0.83
2023-02-04T04:52:11.340Z,0.88
2023-02-04T04:54:38.896Z,0.91
2023-02-04T04:57:06.547Z,0.94
2023-02-04T04:59:33.868Z,0.96
2023-02-04T05:02:00.806Z,0.94
2023-02-04T05:04:27.733Z,0.95
2023-02-04T05:06:55.076Z,0.95
2023-02-04T05:09:22.006Z,0.99
2023-02-04T05:11:49.579Z,1.04
2023-02-04T05:14:16.547Z,1.07
2023-02-04T05:16:44.046Z,1.09
2023-02-04T05:19:11.254Z,1.11
2023-02-04T05:21:38.007Z,1.10
2023-02-04T05:24:06.161Z,1.10
2023-02-04T05:26:35.412Z,1.13
2023-02-04T05:29:04.145Z,1.22
2023-02-04T05:31:33.745Z,1.28
2023-02-04T05:34:01.815Z,1.25
2023-02-04T05:36:28.844Z,1.21
2023-02-04T05:38:56.529Z,1.21
2023-02-04T05:41:24.185Z,1.23
2023-02-04T05:43:53.155Z,1.26
2023-02-04T05:46:19.977Z,1.28
2023-02-04T05:48:47.294Z,1.28
2023-02-04T05:51:14.145Z,1.25
2023-02-04T05:53:41.266Z,1.21
2023-02-04T05:56:08.253Z,1.17
2023-02-04T05:58:36.231Z,1.17
2023-02-04T06:01:03.520Z,1.21
2023-02-04T06:03:32.276Z,1.27
2023-02-04T06:05:59.245Z,1.32
2023-02-04T06:08:26.510Z,1.35
2023-02-04T06:10:53.576Z,1.37
2023-02-04T06:13:20.854Z,1.38
2023-02-04T06:15:49.318Z,1.38
2023-02-04T06:18:18.091Z,1.34
2023-02-04T06:20:48.014Z,1.28
2023-02-04T06:23:15.336Z,1.24
2023-02-04T06:25:43.001Z,1.20
2023-02-04T06:28:10.074Z,1.14
2023-02-04T06:30:39.965Z,1.14
2023-02-04T06:33:07.237Z,1.18
2023-02-04T06:35:37.546Z,1.23
2023-02-04T06:38:04.749Z,1.22
2023-02-04T06:40:32.138Z,1.22
2023-02-04T06:43:00.557Z,1.20
2023-02-04T06:45:27.669Z,1.17
2023-02-04T06:47:55.119Z,1.14
2023-02-04T06:50:22.089Z,1.11
2023-02-04T06:52:51.183Z,1.12
2023-02-04T06:55:18.401Z,1.14
2023-02-04T06:57:45.831Z,1.16
2023-02-04T07:00:13.472Z,1.17
2023-02-04T07:02:42.010Z,1.24
2023-02-04T07:05:09.094Z,1.31
2023-02-04T07:07:36.131Z,1.41
2023-02-04T07:10:03.584Z,1.52
2023-02-04T07:12:30.595Z,1.61
2023-02-04T07:14:58.116Z,1.64
2023-02-04T07:17:25.122Z,1.67
2023-02-04T07:19:52.918Z,1.75
2023-02-04T07:22:20.135Z,1.77
2023-02-04T07:24:51.366Z,1.75
2023-02-04T07:27:18.944Z,1.80
2023-02-04T07:29:46.576Z,1.86
2023-02-04T07:32:14.302Z,1.87
2023-02-04T07:34:42.051Z,1.91
2023-02-04T07:37:09.116Z,1.94
2023-02-04T07:39:37.864Z,1.94
2023-02-04T07:42:06.630Z,1.93
2023-02-04T07:44:41.334Z,1.95
2023-02-04T07:50:09.369Z,1.89
2023-02-04T07:52:36.330Z,1.86
2023-02-04T07:55:03.695Z,1.85
2023-02-04T07:57:31.736Z,1.85
2023-02-04T08:00:24.995Z,1.82
2023-02-04T08:02:52.006Z,1.79
2023-02-04T08:05:18.862Z,1.80
2023-02-04T08:07:46.452Z,1.81
2023-02-04T08:10:13.357Z,1.78
2023-02-04T08:12:41.560Z,1.69
2023-02-04T08:15:09.123Z,1.58
2023-02-04T08:17:36.573Z,1.55
2023-02-04T08:20:03.972Z,1.52
2023-02-04T08:22:34.696Z,1.46
2023-02-04T08:25:04.928Z,1.39
2023-02-04T08:27:34.063Z,1.39
2023-02-04T08:30:01.216Z,1.41
2023-02-04T08:32:30.997Z,1.39
2023-02-04T08:34:58.832Z,1.38
2023-02-04T08:37:26.017Z,1.38
2023-02-04T08:39:53.569Z,1.35
2023-02-04T08:42:20.523Z,1.30
2023-02-04T08:44:47.698Z,1.29
2023-02-04T08:47:18.231Z,1.31
2023-02-04T08:49:45.361Z,1.35
2023-02-04T08:52:12.309Z,1.40
2023-02-04T08:54:40.051Z,1.41
2023-02-04T08:57:09.705Z,1.43
2023-02-04T08:59:40.058Z,1.45
2023-02-04T09:02:06.902Z,1.47
2023-02-04T09:04:34.059Z,1.48
2023-02-04T09:07:03.506Z,1.48
2023-02-04T09:09:31.624Z,1.53
2023-02-04T09:12:01.494Z,1.54
2023-02-04T09:14:28.575Z,1.56
2023-02-04T09:16:55.704Z,1.63
2023-02-04T09:19:26.032Z,1.71
2023-02-04T09:21:53.381Z,1.79
2023-02-04T09:24:24.943Z,1.89
2023-02-04T09:26:51.917Z,1.97
2023-02-04T09:29:19.701Z,2.03
2023-02-04T09:31:47.123Z,2.01
2023-02-04T09:34:16.599Z,2.01
2023-02-04T09:36:47.974Z,2.04
2023-02-04T09:39:14.892Z,2.11
2023-02-04T09:41:42.398Z,2.17
2023-02-04T09:44:15.161Z,2.23
2023-02-04T09:47:10.378Z,2.30
2023-02-04T09:49:39.168Z,2.35
2023-02-04T10:16:31.852Z,2.54
2023-02-04T10:19:04.512Z,2.58
2023-02-04T10:21:38.871Z,2.58
2023-02-04T10:27:19.413Z,2.56
2023-02-04T10:45:37.282Z,2.98
2023-02-04T10:52:11.743Z,3.06
2023-02-04T10:58:09.899Z,2.96
2023-02-04T11:00:42.934Z,2.95
2023-02-04T11:03:27.020Z,2.92
2023-02-04T11:06:02.463Z,2.90
2023-02-04T11:08:44.541Z,2.93
2023-02-04T11:11:42.496Z,2.97
2023-02-04T11:33:38.719Z,3.14
2023-02-04T11:39:54.392Z,3.19
2023-02-04T11:58:27.951Z,3.04
2023-02-04T12:17:30.559Z,2.52
2023-02-04T12:20:24.011Z,2.53
2023-02-04T12:22:53.596Z,2.61
2023-02-04T12:31:28.089Z,2.77
2023-02-04T13:05:20.268Z,2.64
2023-02-04T13:07:49.611Z,2.63
2023-02-04T13:10:19.956Z,2.62
2023-02-04T13:12:53.625Z,2.61
2023-02-04T13:15:24.145Z,2.62
2023-02-04T13:17:52.362Z,2.63
2023-02-04T13:21:03.301Z,2.65
2023-02-04T13:23:31.958Z,2.64
2023-02-04T13:26:02.330Z,2.60
2023-02-04T13:28:31.965Z,2.54
2023-02-04T13:31:16.391Z,2.51
2023-02-04T13:33:58.941Z,2.49
2023-02-04T13:36:30.529Z,2.52
2023-02-04T13:39:00.436Z,2.52
2023-02-04T13:41:29.439Z,2.53
2023-02-04T13:44:19.525Z,2.54
2023-02-04T13:46:50.633Z,2.55
2023-02-04T13:49:21.994Z,2.54
2023-02-04T13:51:50.104Z,2.53
2023-02-04T13:54:18.456Z,2.52
2023-02-04T13:56:48.258Z,2.54
2023-02-04T13:59:16.188Z,2.56
2023-02-04T14:01:46.117Z,2.56
2023-02-04T14:04:14.752Z,2.57
2023-02-04T14:06:45.110Z,2.56
2023-02-04T14:09:13.284Z,2.51
2023-02-04T14:11:40.506Z,2.48
2023-02-04T14:14:10.674Z,2.45
2023-02-04T14:16:40.247Z,2.39
2023-02-04T14:19:09.586Z,2.33
2023-02-04T14:21:38.145Z,2.23
2023-02-04T14:24:10.069Z,2.13
2023-02-04T14:26:39.742Z,2.02
2023-02-04T14:29:31.385Z,1.92
2023-02-04T14:32:13.418Z,1.81
2023-02-04T14:34:48.172Z,1.74
2023-02-04T14:37:19.924Z,1.66
2023-02-04T14:39:54.094Z,1.63
2023-02-04T14:42:21.540Z,1.62
2023-02-04T14:45:00.364Z,1.61
2023-02-04T14:47:48.482Z,1.64
2023-02-04T14:53:43.993Z,1.74
2023-02-04T14:56:16.302Z,1.73
2023-02-04T14:58:54.152Z,1.71
2023-02-04T15:01:50.941Z,1.69
2023-02-04T15:04:23.092Z,1.64
2023-02-04T15:09:45.167Z,1.54
2023-02-04T15:12:12.893Z,1.52
2023-02-04T15:14:50.507Z,1.49
2023-02-04T15:17:24.440Z,1.47
2023-02-04T15:19:57.527Z,1.47
2023-02-04T15:22:41.830Z,1.48
2023-02-04T15:25:11.505Z,1.48
2023-02-04T15:42:50.399Z,1.24
2023-02-04T15:45:21.772Z,1.19
2023-02-04T15:47:54.326Z,1.16
2023-02-04T15:50:22.277Z,1.12
2023-02-04T15:52:53.511Z,1.08
2023-02-04T15:58:33.088Z,0.95
2023-02-04T16:01:26.080Z,0.92
2023-02-04T16:03:59.351Z,0.94
2023-02-04T16:06:29.984Z,0.91
2023-02-04T16:08:58.923Z,0.88
2023-02-04T16:11:38.210Z,0.80
2023-02-04T16:14:11.118Z,0.75
2023-02-04T16:16:41.252Z,0.74
2023-02-04T16:19:32.495Z,0.72
2023-02-04T16:25:12.621Z,0.61
2023-02-04T16:27:52.199Z,0.57
2023-02-04T16:33:12.655Z,0.56
2023-02-04T16:36:18.265Z,0.58
2023-02-04T16:39:12.954Z,0.59
2023-02-04T16:41:44.021Z,0.62
2023-02-04T16:44:24.206Z,0.60
2023-02-04T16:50:59.251Z,0.50
2023-02-04T16:59:56.965Z,0.58
2023-02-04T17:08:53.994Z,0.67
2023-02-04T17:11:31.625Z,0.73
2023-02-04T17:31:09.322Z,0.72
2023-02-04T17:46:31.126Z,0.79
2023-02-04T17:49:07.423Z,0.74
2023-02-04T17:51:37.893Z,0.70
2023-02-04T17:54:11.268Z,0.67
2023-02-04T17:56:39.010Z,0.64
2023-02-04T17:59:10.417Z,0.61
2023-02-04T18:01:55.717Z,0.60
2023-02-04T18:04:45.973Z,0.62
2023-02-04T18:07:30.485Z,0.66
2023-02-04T18:10:35.821Z,0.71
2023-02-04T18:13:16.612Z,0.75
2023-02-04T18:16:12.725Z,0.79
2023-02-04T18:19:12.316Z,0.77
2023-02-04T18:21:40.700Z,0.78
2023-02-04T18:24:43.370Z,0.77
2023-02-04T18:27:18.887Z,0.74
2023-02-04T18:29:55.753Z,0.71
2023-02-04T18:32:40.176Z,0.67
2023-02-04T18:35:26.735Z,0.67
2023-02-04T18:38:40.148Z,0.65
2023-02-04T18:50:43.935Z,0.73
2023-02-04T18:53:16.345Z,0.75
2023-02-04T18:55:52.519Z,0.74
2023-02-04T18:58:39.293Z,0.74
2023-02-04T19:01:11.399Z,0.69
2023-02-04T19:03:52.692Z,0.63
2023-02-04T19:06:35.127Z,0.58
2023-02-04T19:09:34.143Z,0.51
2023-02-04T19:12:27.276Z,0.51
2023-02-04T19:15:07.132Z,0.48
2023-02-04T19:17:47.529Z,0.47
2023-02-04T19:20:31.546Z,0.52
2023-02-04T19:23:01.531Z,0.59
2023-02-04T19:25:49.323Z,0.65
2023-02-04T19:28:41.833Z,0.64
2023-02-04T19:31:34.379Z,0.61
2023-02-04T19:34:25.988Z,0.57
2023-02-04T19:37:39.816Z,0.51
2023-02-04T19:40:33.482Z,0.48
2023-02-04T19:43:09.152Z,0.48
2023-02-04T19:45:39.726Z,0.45
2023-02-04T19:48:44.580Z,0.44
2023-02-04T19:51:18.966Z,0.43
2023-02-04T19:53:54.995Z,0.47
2023-02-04T19:56:35.099Z,0.49
2023-02-04T19:59:18.561Z,0.52
2023-02-04T20:01:47.786Z,0.55
2023-02-04T20:04:20.733Z,0.53
2023-02-04T20:06:49.702Z,0.51
2023-02-04T20:09:26.803Z,0.50
2023-02-04T20:12:15.411Z,0.50
2023-02-04T20:18:05.291Z,0.43
2023-02-04T20:20:37.831Z,0.41
2023-02-04T20:23:35.469Z,0.44
2023-02-04T20:26:07.285Z,0.49
2023-02-04T20:28:44.182Z,0.53
2023-02-04T20:31:28.994Z,0.60
2023-02-04T20:34:23.631Z,0.57
2023-02-04T20:37:19.264Z,0.55
2023-02-04T20:39:51.392Z,0.55
2023-02-04T20:43:10.738Z,0.57
2023-02-04T20:45:47.102Z,0.60
2023-02-04T20:48:18.783Z,0.59
2023-02-04T20:50:53.200Z,0.56
2023-02-04T20:53:49.106Z,0.57
2023-02-04T20:56:25.746Z,0.58
2023-02-04T20:59:20.957Z,0.57
2023-02-04T21:01:51.331Z,0.55
2023-02-04T21:04:38.172Z,0.57
2023-02-04T21:07:14.012Z,0.59
2023-02-04T21:09:45.303Z,0.61
2023-02-04T21:12:13.434Z,0.62
2023-02-04T21:14:46.328Z,0.61
2023-02-04T21:17:14.675Z,0.61
2023-02-04T21:19:42.188Z,0.60
2023-02-04T21:22:10.026Z,0.57
2023-02-04T21:29:14.448Z,0.53
2023-02-04T21:39:08.178Z,0.63
2023-02-04T21:41:37.086Z,0.70
2023-02-04T21:44:06.120Z,0.77
2023-02-04T21:46:41.245Z,0.81
2023-02-04T21:49:08.985Z,0.80
2023-02-04T21:51:38.602Z,0.81
2023-02-04T21:54:13.828Z,0.81
2023-02-04T21:56:41.259Z,0.79
2023-02-04T21:59:10.989Z,0.75
2023-02-04T22:01:38.050Z,0.74
2023-02-04T22:04:05.945Z,0.75
2023-02-04T22:06:34.547Z,0.74
2023-02-04T22:09:01.774Z,0.75
2023-02-04T22:11:28.872Z,0.76
2023-02-04T22:13:56.093Z,0.76
2023-02-04T22:16:24.532Z,0.77
2023-02-04T22:18:51.863Z,0.75
2023-02-04T22:21:19.547Z,0.72
2023-02-04T22:23:47.053Z,0.70
2023-02-04T22:26:14.242Z,0.68
2023-02-04T22:28:42.624Z,0.68
2023-02-04T22:31:14.505Z,0.71
2023-02-04T22:33:42.349Z,0.74
2023-02-04T22:36:12.264Z,0.78
2023-02-04T22:38:39.588Z,0.80
2023-02-04T22:41:07.422Z,0.86
2023-02-04T22:43:35.005Z,0.94
2023-02-04T22:46:02.260Z,0.99
2023-02-04T22:48:29.413Z,1.00
2023-02-04T22:51:02.981Z,0.96
2023-02-04T22:53:29.994Z,0.91
2023-02-04T22:55:58.409Z,0.94
2023-02-04T22:58:26.507Z,0.98
2023-02-04T23:00:53.836Z,0.98
2023-02-04T23:03:21.181Z,0.93
2023-02-04T23:05:49.705Z,0.94
2023-02-04T23:08:17.856Z,0.97
2023-02-04T23:10:45.620Z,1.04
2023-02-04T23:13:28.007Z,1.11
2023-02-04T23:15:55.335Z,1.14
2023-02-04T23:18:22.444Z,1.15
2023-02-04T23:20:51.862Z,1.16
2023-02-04T23:23:19.553Z,1.13
2023-02-04T23:25:47.116Z,1.09
2023-02-04T23:28:14.599Z,1.06
2023-02-04T23:30:43.601Z,1.02
2023-02-04T23:33:10.837Z,0.99
2023-02-04T23:35:37.975Z,0.95
2023-02-04T23:39:43.128Z,0.94
2023-02-04T23:42:21.699Z,0.88
2023-02-04T23:44:49.124Z,0.83
2023-02-04T23:47:16.202Z,0.82
2023-02-04T23:49:44.123Z,0.84
2023-02-04T23:52:12.654Z,0.87
2023-02-04T23:54:41.354Z,0.94
2023-02-04T23:57:10.605Z,1.03
2023-02-04T23:59:41.653Z,1.10
